Terminal Aerodrome Forecast
Issued by NWS

Home | Current Version | Previous Version | Text Only | Print | Product List | Glossary Off
Versions: 1 2 3 4 5 6 7 8 9 10 11 12 13 14 15 16 17 18 19 20 21 22 23 24 25 26

000
FTUS41 KCTP 011527 AAC
TAFBFD
TAF AMD
KBFD 011527Z 0115/0212 15006KT 6SM -RA BR OVC006
      TEMPO 0115/0116 2SM BR OVC003
     FM011600 19006KT 6SM BR VCSH BKN007 OVC015
     FM020100 32003KT 4SM -RA BR OVC004
     FM020600 VRB03KT 1 1/2SM -RA BR OVC003=

USA.gov is the U.S. government's official web portal to all federal, state and local government web resources and services.